EDV3327 KBWI-KJFK
Flight info
| Callsign | EDV3327 |
|---|---|
| Flight time | 0h 33m |
| Altitude | 17000 |
| Route | DUKPN1 DONIL T315 PANZE V44 CAMRN DCT |
| Aircraft | CRJ7/M-SDFGIRWY/S |
Departure
| Time | 2026-05-07 18:57 |
|---|---|
| Airport | Baltimore/Washington International Thurgood Marshall Airport (KBWI) |
Arrival
| Time | 2026-05-07 19:30 |
|---|---|
| Airport | John F. Kennedy International Airport (KJFK) |
| Time | Latitude | Longitude | Altitude | Speed | Heading |
|---|---|---|---|---|---|
| 2026-05-07 18:40 | 39.17865 | -76.66697 | 158 ft | 0 kts | 270° |
| 2026-05-07 18:51 | 39.17865 | -76.66688 | 158 ft | 4 kts | 266° |
| 2026-05-07 18:51 | 39.17873 | -76.66656 | 158 ft | 4 kts | 234° |
| 2026-05-07 18:52 | 39.17892 | -76.66641 | 157 ft | 4 kts | 178° |
| 2026-05-07 18:52 | 39.17903 | -76.66646 | 157 ft | 1 kts | 144° |
| 2026-05-07 18:54 | 39.17893 | -76.66637 | 157 ft | 6 kts | 144° |
| 2026-05-07 18:54 | 39.17852 | -76.66600 | 157 ft | 9 kts | 144° |
| 2026-05-07 18:54 | 39.17772 | -76.66525 | 155 ft | 16 kts | 133° |
| 2026-05-07 18:54 | 39.17744 | -76.66391 | 154 ft | 17 kts | 69° |
| 2026-05-07 18:55 | 39.17747 | -76.66232 | 153 ft | 21 kts | 112° |
| 2026-05-07 18:55 | 39.17674 | -76.66026 | 150 ft | 28 kts | 116° |
| 2026-05-07 18:55 | 39.17587 | -76.65798 | 150 ft | 29 kts | 116° |
| 2026-05-07 18:55 | 39.17476 | -76.65659 | 154 ft | 18 kts | 193° |
| 2026-05-07 18:56 | 39.17424 | -76.65645 | 154 ft | 8 kts | 107° |
| 2026-05-07 18:56 | 39.17403 | -76.65534 | 155 ft | 13 kts | 139° |
| 2026-05-07 18:56 | 39.17315 | -76.65528 | 155 ft | 15 kts | 186° |
| 2026-05-07 18:56 | 39.17281 | -76.65577 | 154 ft | 1 kts | 275° |
| 2026-05-07 18:57 | 39.17306 | -76.65996 | 150 ft | 92 kts | 274° |
| 2026-05-07 18:57 | 39.17375 | -76.67168 | 211 ft | 159 kts | 275° |
| 2026-05-07 18:57 | 39.17477 | -76.68611 | 1140 ft | 152 kts | 277° |
| 2026-05-07 18:57 | 39.17605 | -76.69980 | 2087 ft | 163 kts | 275° |
| 2026-05-07 18:58 | 39.17673 | -76.71554 | 2605 ft | 192 kts | 273° |
| 2026-05-07 18:58 | 39.17608 | -76.73424 | 3093 ft | 229 kts | 252° |
| 2026-05-07 18:58 | 39.16607 | -76.75122 | 3826 ft | 250 kts | 213° |
| 2026-05-07 18:58 | 39.14920 | -76.75692 | 4712 ft | 259 kts | 176° |
| 2026-05-07 18:59 | 39.13224 | -76.74885 | 5520 ft | 269 kts | 141° |
| 2026-05-07 18:59 | 39.12108 | -76.72927 | 6247 ft | 280 kts | 107° |
| 2026-05-07 18:59 | 39.11491 | -76.70532 | 6985 ft | 289 kts | 115° |
| 2026-05-07 18:59 | 39.10232 | -76.68507 | 7771 ft | 290 kts | 140° |
| 2026-05-07 19:00 | 39.09344 | -76.67197 | 8319 ft | 298 kts | 124° |
| 2026-05-07 19:00 | 39.08494 | -76.64709 | 9126 ft | 308 kts | 112° |
| 2026-05-07 19:00 | 39.08091 | -76.61965 | 9869 ft | 320 kts | 90° |
| 2026-05-07 19:00 | 39.08267 | -76.59067 | 10559 ft | 327 kts | 85° |
| 2026-05-07 19:01 | 39.08554 | -76.56124 | 11331 ft | 333 kts | 84° |
| 2026-05-07 19:01 | 39.08763 | -76.53069 | 11694 ft | 351 kts | 89° |
| 2026-05-07 19:01 | 39.08875 | -76.49849 | 12189 ft | 367 kts | 90° |
| 2026-05-07 19:01 | 39.08972 | -76.46509 | 12851 ft | 377 kts | 90° |
| 2026-05-07 19:02 | 39.09168 | -76.43116 | 13628 ft | 384 kts | 85° |
| 2026-05-07 19:02 | 39.09568 | -76.39694 | 14286 ft | 390 kts | 82° |
| 2026-05-07 19:02 | 39.10062 | -76.36231 | 14957 ft | 397 kts | 81° |
| 2026-05-07 19:02 | 39.10556 | -76.32714 | 15613 ft | 402 kts | 82° |
| 2026-05-07 19:03 | 39.11004 | -76.29131 | 16226 ft | 407 kts | 83° |
| 2026-05-07 19:03 | 39.11424 | -76.25453 | 16672 ft | 419 kts | 84° |
| 2026-05-07 19:03 | 39.11863 | -76.21695 | 16871 ft | 437 kts | 83° |
| 2026-05-07 19:03 | 39.12333 | -76.17744 | 16949 ft | 455 kts | 83° |
| 2026-05-07 19:04 | 39.12817 | -76.13628 | 16967 ft | 474 kts | 84° |
| 2026-05-07 19:04 | 39.13322 | -76.09346 | 16999 ft | 491 kts | 84° |
| 2026-05-07 19:04 | 39.13834 | -76.04973 | 17004 ft | 497 kts | 84° |
| 2026-05-07 19:04 | 39.14351 | -76.00547 | 17005 ft | 501 kts | 83° |
| 2026-05-07 19:05 | 39.14866 | -75.96099 | 17003 ft | 500 kts | 84° |
| 2026-05-07 19:05 | 39.15372 | -75.91727 | 16992 ft | 487 kts | 84° |
| 2026-05-07 19:05 | 39.15867 | -75.87470 | 16978 ft | 476 kts | 84° |
| 2026-05-07 19:05 | 39.16349 | -75.83287 | 17021 ft | 467 kts | 84° |
| 2026-05-07 19:06 | 39.16820 | -75.79131 | 17022 ft | 470 kts | 84° |
| 2026-05-07 19:06 | 39.17776 | -75.70761 | 17022 ft | 475 kts | 84° |
| 2026-05-07 19:06 | 39.18254 | -75.66541 | 17027 ft | 478 kts | 84° |
| 2026-05-07 19:07 | 39.18738 | -75.62290 | 17030 ft | 480 kts | 84° |
| 2026-05-07 19:07 | 39.19220 | -75.58025 | 17029 ft | 482 kts | 84° |
| 2026-05-07 19:07 | 39.19702 | -75.53728 | 17030 ft | 484 kts | 84° |
| 2026-05-07 19:07 | 39.20192 | -75.49375 | 17032 ft | 486 kts | 84° |
| 2026-05-07 19:08 | 39.20668 | -75.45062 | 17031 ft | 487 kts | 84° |
| 2026-05-07 19:08 | 39.21153 | -75.40741 | 17017 ft | 487 kts | 84° |
| 2026-05-07 19:08 | 39.21633 | -75.36406 | 17023 ft | 489 kts | 84° |
| 2026-05-07 19:08 | 39.22110 | -75.32053 | 17038 ft | 491 kts | 84° |
| 2026-05-07 19:09 | 39.22592 | -75.27692 | 17043 ft | 492 kts | 84° |
| 2026-05-07 19:09 | 39.23078 | -75.23262 | 17040 ft | 493 kts | 84° |
| 2026-05-07 19:09 | 39.23560 | -75.18872 | 17042 ft | 495 kts | 84° |
| 2026-05-07 19:09 | 39.24038 | -75.14473 | 17040 ft | 496 kts | 84° |
| 2026-05-07 19:10 | 39.24513 | -75.10077 | 17035 ft | 496 kts | 84° |
| 2026-05-07 19:10 | 39.24994 | -75.05667 | 17004 ft | 496 kts | 85° |
| 2026-05-07 19:10 | 39.25467 | -75.01251 | 17011 ft | 496 kts | 85° |
| 2026-05-07 19:10 | 39.25950 | -74.96831 | 17038 ft | 497 kts | 83° |
| 2026-05-07 19:11 | 39.26991 | -74.92580 | 17067 ft | 501 kts | 63° |
| 2026-05-07 19:11 | 39.28934 | -74.88878 | 17054 ft | 497 kts | 48° |
| 2026-05-07 19:11 | 39.31163 | -74.85395 | 17043 ft | 498 kts | 48° |
| 2026-05-07 19:11 | 39.33277 | -74.81827 | 17038 ft | 500 kts | 53° |
| 2026-05-07 19:12 | 39.35219 | -74.78088 | 17041 ft | 500 kts | 55° |
| 2026-05-07 19:12 | 39.37134 | -74.74255 | 17037 ft | 501 kts | 56° |
| 2026-05-07 19:12 | 39.39017 | -74.70467 | 17032 ft | 501 kts | 55° |
| 2026-05-07 19:12 | 39.40913 | -74.66685 | 17032 ft | 501 kts | 55° |
| 2026-05-07 19:13 | 39.42842 | -74.62930 | 17033 ft | 501 kts | 54° |
| 2026-05-07 19:13 | 39.44773 | -74.59179 | 17054 ft | 501 kts | 54° |
| 2026-05-07 19:13 | 39.46731 | -74.55453 | 17038 ft | 501 kts | 53° |
| 2026-05-07 19:13 | 39.48747 | -74.51773 | 17031 ft | 500 kts | 52° |
| 2026-05-07 19:14 | 39.50762 | -74.48093 | 17027 ft | 500 kts | 52° |
| 2026-05-07 19:14 | 39.52779 | -74.44422 | 17029 ft | 500 kts | 52° |
| 2026-05-07 19:14 | 39.54794 | -74.40749 | 17028 ft | 499 kts | 52° |
| 2026-05-07 19:14 | 39.56818 | -74.37034 | 17028 ft | 498 kts | 53° |
| 2026-05-07 19:15 | 39.58806 | -74.33356 | 17018 ft | 499 kts | 53° |
| 2026-05-07 19:15 | 39.60816 | -74.29621 | 17026 ft | 498 kts | 53° |
| 2026-05-07 19:15 | 39.62796 | -74.25933 | 17032 ft | 499 kts | 53° |
| 2026-05-07 19:15 | 39.64781 | -74.22233 | 17032 ft | 499 kts | 53° |
| 2026-05-07 19:16 | 39.66766 | -74.18535 | 17031 ft | 499 kts | 53° |
| 2026-05-07 19:16 | 39.68932 | -74.15035 | 17014 ft | 495 kts | 41° |
| 2026-05-07 19:16 | 39.71542 | -74.12157 | 17023 ft | 491 kts | 32° |
| 2026-05-07 19:16 | 39.74270 | -74.09483 | 17026 ft | 491 kts | 32° |
| 2026-05-07 19:17 | 39.76961 | -74.06722 | 17022 ft | 494 kts | 35° |
| 2026-05-07 19:17 | 39.79579 | -74.03827 | 17038 ft | 496 kts | 36° |
| 2026-05-07 19:17 | 39.82188 | -74.00896 | 17045 ft | 495 kts | 37° |
| 2026-05-07 19:17 | 39.84825 | -73.98031 | 17015 ft | 490 kts | 30° |
| 2026-05-07 19:18 | 39.87727 | -73.95776 | 17020 ft | 482 kts | 20° |
| 2026-05-07 19:18 | 39.90737 | -73.93855 | 16999 ft | 479 kts | 19° |
| 2026-05-07 19:18 | 39.93702 | -73.91942 | 16487 ft | 470 kts | 20° |
| 2026-05-07 19:18 | 39.96559 | -73.89982 | 15826 ft | 458 kts | 22° |
| 2026-05-07 19:19 | 39.99323 | -73.88013 | 15108 ft | 449 kts | 23° |
| 2026-05-07 19:19 | 40.02041 | -73.86079 | 14418 ft | 440 kts | 22° |
| 2026-05-07 19:19 | 40.04785 | -73.84440 | 13696 ft | 428 kts | 16° |
| 2026-05-07 19:19 | 40.07538 | -73.83127 | 12909 ft | 417 kts | 13° |
| 2026-05-07 19:20 | 40.10228 | -73.81899 | 12259 ft | 408 kts | 13° |
| 2026-05-07 19:20 | 40.12614 | -73.80773 | 11783 ft | 386 kts | 14° |
| 2026-05-07 19:20 | 40.14881 | -73.79667 | 11303 ft | 370 kts | 14° |
| 2026-05-07 19:20 | 40.16802 | -73.78701 | 10893 ft | 356 kts | 14° |
| 2026-05-07 19:21 | 40.18567 | -73.77786 | 10505 ft | 346 kts | 14° |
| 2026-05-07 19:21 | 40.20220 | -73.76914 | 10150 ft | 336 kts | 14° |
| 2026-05-07 19:21 | 40.21806 | -73.76092 | 9804 ft | 325 kts | 13° |
| 2026-05-07 19:21 | 40.23357 | -73.75302 | 9471 ft | 317 kts | 13° |
| 2026-05-07 19:22 | 40.24952 | -73.74501 | 9114 ft | 308 kts | 13° |
| 2026-05-07 19:22 | 40.26436 | -73.73748 | 8775 ft | 299 kts | 13° |
| 2026-05-07 19:22 | 40.27857 | -73.73037 | 8438 ft | 291 kts | 13° |
| 2026-05-07 19:22 | 40.29260 | -73.72345 | 8102 ft | 283 kts | 13° |
| 2026-05-07 19:23 | 40.30626 | -73.71675 | 7780 ft | 277 kts | 13° |
| 2026-05-07 19:23 | 40.32378 | -73.70822 | 7440 ft | 276 kts | 13° |
| 2026-05-07 19:23 | 40.34167 | -73.69944 | 7119 ft | 273 kts | 14° |
| 2026-05-07 19:23 | 40.35932 | -73.69059 | 6808 ft | 270 kts | 15° |
| 2026-05-07 19:24 | 40.37674 | -73.68178 | 6491 ft | 266 kts | 15° |
| 2026-05-07 19:24 | 40.39388 | -73.67312 | 6168 ft | 261 kts | 15° |
| 2026-05-07 19:24 | 40.41096 | -73.66467 | 5827 ft | 256 kts | 18° |
| 2026-05-07 19:24 | 40.42741 | -73.65628 | 5489 ft | 252 kts | 18° |
| 2026-05-07 19:25 | 40.44358 | -73.64804 | 5162 ft | 246 kts | 18° |
| 2026-05-07 19:25 | 40.45933 | -73.63975 | 4831 ft | 241 kts | 19° |
| 2026-05-07 19:25 | 40.46965 | -73.63440 | 4610 ft | 240 kts | 19° |
| 2026-05-07 19:25 | 40.49031 | -73.62373 | 4143 ft | 238 kts | 19° |
| 2026-05-07 19:26 | 40.50054 | -73.61853 | 3920 ft | 237 kts | 19° |
| 2026-05-07 19:26 | 40.51590 | -73.61090 | 3582 ft | 235 kts | 19° |
| 2026-05-07 19:26 | 40.53095 | -73.60309 | 3271 ft | 230 kts | 20° |
| 2026-05-07 19:26 | 40.54555 | -73.59530 | 3117 ft | 221 kts | 19° |
| 2026-05-07 19:27 | 40.56002 | -73.59355 | 3018 ft | 205 kts | 341° |
| 2026-05-07 19:27 | 40.57180 | -73.60501 | 2826 ft | 223 kts | 309° |
| 2026-05-07 19:27 | 40.58149 | -73.62242 | 2518 ft | 239 kts | 304° |
| 2026-05-07 19:27 | 40.59045 | -73.64157 | 2192 ft | 258 kts | 301° |
| 2026-05-07 19:28 | 40.59986 | -73.66236 | 1854 ft | 263 kts | 300° |
| 2026-05-07 19:28 | 40.60927 | -73.68335 | 1601 ft | 236 kts | 301° |
| 2026-05-07 19:28 | 40.61648 | -73.69923 | 1506 ft | 169 kts | 301° |
| 2026-05-07 19:28 | 40.62212 | -73.71161 | 1115 ft | 148 kts | 302° |
| 2026-05-07 19:29 | 40.62722 | -73.72280 | 745 ft | 138 kts | 301° |
| 2026-05-07 19:29 | 40.63204 | -73.73377 | 520 ft | 137 kts | 303° |
| 2026-05-07 19:29 | 40.63643 | -73.74324 | 305 ft | 130 kts | 305° |
| 2026-05-07 19:29 | 40.64131 | -73.75396 | 166 ft | 116 kts | 307° |
| 2026-05-07 19:30 | 40.64526 | -73.76267 | 45 ft | 108 kts | 307° |
| 2026-05-07 19:30 | 40.64846 | -73.76974 | 20 ft | 68 kts | 301° |
| 2026-05-07 19:30 | 40.64995 | -73.77409 | 18 ft | 34 kts | 253° |
| 2026-05-07 19:30 | 40.64879 | -73.77572 | 19 ft | 21 kts | 210° |
| 2026-05-07 19:31 | 40.64797 | -73.77500 | 20 ft | 17 kts | 127° |
| 2026-05-07 19:31 | 40.64730 | -73.77363 | 20 ft | 18 kts | 119° |
| 2026-05-07 19:31 | 40.64677 | -73.77257 | 20 ft | 10 kts | 140° |
| 2026-05-07 19:31 | 40.64635 | -73.77199 | 19 ft | 6 kts | 170° |
| 2026-05-07 19:32 | 40.64625 | -73.77198 | 19 ft | 0 kts | 180° |